Time;durP1;ratioP1;P1;durP2;ratioP2;P2;SDS_P1;SDS_P2;PMS_P1;PMS_P2;Temp;Humidity;BMP_temperature;BMP_pressure;BME280_temperature;BME280_humidity;BME280_pressure;Samples;Min_cycle;Max_cycle;Signal;HPM_P1;HPM_P2
2023/04/17 00:01:49;;;;;;;17.70;12.30;;;;;;;7.20;100.00;102489.81;4986254;28;20173;-74
2023/04/17 00:04:14;;;;;;;22.77;11.90;;;;;;;7.13;100.00;102472.63;4986120;28;20449;-74
2023/04/17 00:06:43;;;;;;;24.23;11.80;;;;;;;7.05;100.00;102403.09;4969350;28;21231;-74
2023/04/17 00:09:09;;;;;;;21.97;12.57;;;;;;;8.37;100.00;102642.25;4984765;28;20193;-74
2023/04/17 00:11:34;;;;;;;18.07;11.57;;;;;;;7.52;100.00;102530.59;4968667;28;20457;-74
2023/04/17 00:14:00;;;;;;;28.07;13.57;;;;;;;8.49;100.00;102678.59;4984718;28;20428;-74
2023/04/17 00:16:26;;;;;;;18.60;12.17;;;;;;;6.42;100.00;102352.69;4986204;28;20297;-75
2023/04/17 00:18:52;;;;;;;19.70;12.67;;;;;;;6.97;100.00;102451.81;4986916;28;20186;-74
2023/04/17 00:21:18;;;;;;;17.80;12.60;;;;;;;6.83;100.00;102428.19;4982165;28;20822;-74
2023/04/17 00:23:44;;;;;;;17.97;11.53;;;;;;;6.67;100.00;102431.34;4983532;28;20426;-74
2023/04/17 00:26:10;;;;;;;22.63;12.87;;;;;;;6.94;100.00;102393.41;4983478;28;20185;-73
2023/04/17 00:28:36;;;;;;;19.87;12.23;;;;;;;6.93;100.00;102389.03;4983306;28;20429;-74
2023/04/17 00:31:01;;;;;;;17.40;11.07;;;;;;;8.03;100.00;102628.44;4983411;28;20256;-74
2023/04/17 00:33:27;;;;;;;19.63;12.33;;;;;;;7.33;100.00;102468.19;4982948;28;20222;-74
2023/04/17 00:35:52;;;;;;;21.30;12.77;;;;;;;7.15;100.00;102489.38;4964672;28;20210;-74
2023/04/17 00:38:17;;;;;;;19.00;11.70;;;;;;;8.48;100.00;102662.72;4983074;28;20178;-74
2023/04/17 00:40:46;;;;;;;20.70;12.30;;;;;;;8.74;100.00;102676.34;4982892;28;20210;-74
2023/04/17 00:43:11;;;;;;;17.40;12.17;;;;;;;8.63;100.00;102727.31;4982062;28;20191;-74
2023/04/17 00:45:37;;;;;;;20.13;11.23;;;;;;;8.65;100.00;102723.53;4983094;28;20805;-74
2023/04/17 00:48:05;;;;;;;21.07;12.07;;;;;;;8.11;100.00;102620.56;4982226;28;20182;-74
2023/04/17 00:50:31;;;;;;;20.53;12.47;;;;;;;9.22;100.00;102763.78;4981793;28;20209;-74
2023/04/17 00:52:58;;;;;;;16.70;11.70;;;;;;;9.02;100.00;102769.13;4982833;28;20433;-74
2023/04/17 00:55:25;;;;;;;22.20;12.57;;;;;;;7.37;100.00;102501.63;4982836;28;20209;-74
2023/04/17 00:57:50;;;;;;;20.73;12.33;;;;;;;8.03;100.00;102578.50;4965225;28;20476;-74
2023/04/17 01:00:17;;;;;;;19.40;12.50;;;;;;;6.77;100.00;102375.38;4982416;28;20465;-74
2023/04/17 01:02:46;;;;;;;18.57;12.77;;;;;;;7.60;100.00;102538.78;4982391;28;20197;-74
2023/04/17 01:05:11;;;;;;;18.77;11.30;;;;;;;6.89;100.00;102413.47;4982645;28;20417;-74
2023/04/17 01:07:38;;;;;;;19.83;12.63;;;;;;;7.40;100.00;102540.56;4982231;28;20766;-74
2023/04/17 01:10:04;;;;;;;20.30;12.37;;;;;;;6.91;100.00;102432.81;4980562;28;20212;-74
2023/04/17 01:12:30;;;;;;;22.30;12.03;;;;;;;7.44;100.00;102544.66;4982429;28;20805;-74
2023/04/17 01:14:56;;;;;;;20.53;12.47;;;;;;;7.20;100.00;102502.28;4964692;28;20570;-74
2023/04/17 01:17:26;;;;;;;22.73;13.27;;;;;;;9.24;100.00;102778.72;4982709;28;20433;-74
2023/04/17 01:19:52;;;;;;;23.30;13.80;;;;;;;7.36;100.00;102462.56;4981927;28;20524;-74
2023/04/17 01:22:20;;;;;;;19.70;13.13;;;;;;;9.05;100.00;102789.44;4965432;28;20877;-74
2023/04/17 01:24:47;;;;;;;16.87;13.13;;;;;;;7.02;100.00;102465.56;4981507;28;20213;-74
2023/04/17 01:27:14;;;;;;;19.27;13.87;;;;;;;7.60;100.00;102546.78;4965024;28;20434;-74
2023/04/17 01:29:40;;;;;;;18.33;13.00;;;;;;;7.92;100.00;102622.19;4982081;28;20445;-74
2023/04/17 01:32:06;;;;;;;19.83;13.07;;;;;;;6.96;100.00;102423.44;4982219;28;20432;-74
2023/04/17 01:34:31;;;;;;;19.80;13.60;;;;;;;7.93;100.00;102612.38;4981675;28;20465;-74
2023/04/17 01:36:57;;;;;;;19.93;14.30;;;;;;;7.42;100.00;102491.38;4965844;28;20479;-74
2023/04/17 01:39:22;;;;;;;19.00;13.20;;;;;;;7.83;100.00;102623.03;4982519;28;20218;-74
2023/04/17 01:41:48;;;;;;;17.37;13.30;;;;;;;7.15;100.00;102509.88;4981071;28;20722;-74
2023/04/17 01:44:13;;;;;;;19.23;12.73;;;;;;;6.41;100.00;102382.97;4981812;28;20186;-74
2023/04/17 01:46:39;;;;;;;17.50;13.70;;;;;;;7.53;100.00;102554.50;4981586;28;20653;-74
2023/04/17 01:49:04;;;;;;;22.33;13.80;;;;;;;7.66;100.00;102572.94;4982841;28;20265;-74
2023/04/17 01:51:30;;;;;;;20.23;14.80;;;;;;;6.95;100.00;102427.09;4981083;28;20201;-74
2023/04/17 01:53:55;;;;;;;23.77;15.10;;;;;;;8.14;100.00;102617.63;4981734;28;20182;-73
2023/04/17 01:56:21;;;;;;;21.33;12.97;;;;;;;7.87;100.00;102618.28;4980998;28;20209;-74
2023/04/17 01:58:47;;;;;;;20.33;14.43;;;;;;;8.04;100.00;102608.72;4981405;28;20206;-73
2023/04/17 02:01:12;;;;;;;22.70;14.87;;;;;;;6.55;100.00;102379.94;4964158;28;20249;-74
2023/04/17 02:03:38;;;;;;;24.73;15.80;;;;;;;8.64;100.00;102731.69;4981401;28;20190;-73
2023/04/17 02:06:04;;;;;;;21.70;14.43;;;;;;;8.38;100.00;102700.09;4981550;28;20185;-74
2023/04/17 02:08:29;;;;;;;18.93;13.37;;;;;;;7.38;100.00;102551.38;4964052;28;20178;-73
2023/04/17 02:10:54;;;;;;;20.20;14.10;;;;;;;7.72;100.00;102607.13;4981404;28;20813;-73
2023/04/17 02:13:20;;;;;;;17.83;13.73;;;;;;;7.88;100.00;102623.47;4980678;28;20182;-73
2023/04/17 02:15:45;;;;;;;21.47;14.83;;;;;;;7.65;100.00;102552.56;4980592;28;20212;-74
2023/04/17 02:18:11;;;;;;;23.83;15.10;;;;;;;7.48;100.00;102586.94;4980688;28;20321;-73
2023/04/17 02:20:37;;;;;;;17.20;14.00;;;;;;;7.50;100.00;102532.59;4980656;28;20228;-74
2023/04/17 02:23:05;;;;;;;24.07;13.10;;;;;;;8.13;100.00;102669.38;4963971;28;20218;-74
2023/04/17 02:25:31;;;;;;;18.90;14.27;;;;;;;6.70;100.00;102403.56;4962799;28;20426;-74
2023/04/17 02:27:57;;;;;;;20.23;13.00;;;;;;;7.86;100.00;102643.28;4981883;28;21362;-74
2023/04/17 02:30:24;;;;;;;20.03;13.20;;;;;;;6.52;100.00;102419.34;4979973;28;20452;-74
2023/04/17 02:32:50;;;;;;;16.40;12.80;;;;;;;6.75;100.00;102479.53;4981021;28;20204;-74
2023/04/17 02:35:17;;;;;;;17.73;12.10;;;;;;;7.15;100.00;102540.06;4980427;28;20540;-74
2023/04/17 02:37:42;;;;;;;15.87;12.50;;;;;;;7.86;100.00;102684.22;4981042;28;20444;-73
2023/04/17 02:40:09;;;;;;;16.17;11.97;;;;;;;7.88;100.00;102682.25;4963672;28;20457;-74
2023/04/17 02:42:34;;;;;;;19.70;12.50;;;;;;;7.62;100.00;102655.16;4979973;28;20657;-74
2023/04/17 02:45:00;;;;;;;20.83;12.50;;;;;;;7.03;100.00;102487.78;4980454;28;20500;-74
2023/04/17 02:47:25;;;;;;;18.70;11.37;;;;;;;8.97;100.00;102811.56;4981399;28;20182;-74
2023/04/17 02:49:51;;;;;;;14.97;11.43;;;;;;;7.67;100.00;102644.09;4979680;28;20210;-74
2023/04/17 02:52:17;;;;;;;17.40;12.90;;;;;;;6.63;100.00;102485.09;4981692;28;20182;-74
2023/04/17 02:54:43;;;;;;;18.70;12.70;;;;;;;6.55;100.00;102425.25;4980183;28;20712;-74
2023/04/17 02:57:08;;;;;;;20.00;13.73;;;;;;;6.97;100.00;102521.19;4979764;28;20529;-73
2023/04/17 02:59:33;;;;;;;18.73;12.03;;;;;;;6.49;100.00;102412.47;4978690;28;20281;-74
2023/04/17 03:01:59;;;;;;;18.30;13.27;;;;;;;7.96;100.00;102667.38;4979996;28;20200;-74
2023/04/17 03:04:26;;;;;;;20.03;13.23;;;;;;;6.68;100.00;102458.84;4980560;28;20248;-74
2023/04/17 03:06:52;;;;;;;17.87;12.03;;;;;;;7.56;100.00;102599.63;4979057;28;20187;-74
2023/04/17 03:09:21;;;;;;;21.03;12.53;;;;;;;7.32;100.00;102573.28;4980167;28;20421;-75
2023/04/17 03:11:49;;;;;;;16.50;12.30;;;;;;;6.95;100.00;102499.13;4980667;28;20421;-75
2023/04/17 03:14:15;;;;;;;15.57;12.07;;;;;;;6.64;100.00;102500.94;4979398;28;20931;-74
2023/04/17 03:16:41;;;;;;;16.40;12.70;;;;;;;6.47;100.00;102427.75;4979592;28;20429;-74
2023/04/17 03:19:06;;;;;;;20.33;13.30;;;;;;;7.20;100.00;102582.34;4981927;28;20425;-75
2023/04/17 03:21:32;;;;;;;18.10;12.87;;;;;;;8.51;100.00;102788.97;4979588;28;20288;-75
2023/04/17 03:23:57;;;;;;;16.23;12.70;;;;;;;6.21;100.00;102400.69;4979760;28;20193;-75
2023/04/17 03:26:23;;;;;;;19.23;13.03;;;;;;;7.24;100.00;102621.16;4979936;28;20553;-75
2023/04/17 03:28:48;;;;;;;18.30;13.33;;;;;;;6.52;100.00;102462.00;4979186;28;20188;-74
2023/04/17 03:31:14;;;;;;;15.87;12.67;;;;;;;6.34;100.00;102441.28;4979622;28;20276;-74
2023/04/17 03:33:39;;;;;;;19.60;12.10;;;;;;;6.99;100.00;102591.25;4980526;28;20819;-75
2023/04/17 03:36:05;;;;;;;15.90;12.30;;;;;;;8.45;100.00;102821.63;4963332;28;20205;-74
2023/04/17 03:38:32;;;;;;;21.10;13.97;;;;;;;6.85;100.00;102545.41;4980533;28;20189;-74
2023/04/17 03:40:58;;;;;;;17.27;13.23;;;;;;;6.85;100.00;102510.72;4980029;28;20444;-75
2023/04/17 03:43:23;;;;;;;19.80;12.60;;;;;;;6.45;100.00;102509.69;4979179;28;20438;-74
2023/04/17 03:45:49;;;;;;;17.07;14.10;;;;;;;6.58;100.00;102496.13;4980960;28;20418;-75
2023/04/17 03:48:14;;;;;;;18.00;13.70;;;;;;;7.58;100.00;102639.53;4980281;28;20664;-75
2023/04/17 03:50:40;;;;;;;16.70;13.67;;;;;;;7.66;100.00;102671.75;4980499;28;20699;-74
2023/04/17 03:53:05;;;;;;;17.47;13.03;;;;;;;7.59;100.00;102683.97;4979081;28;20192;-75
2023/04/17 03:55:31;;;;;;;17.33;13.20;;;;;;;7.10;100.00;102584.16;4979982;28;20214;-75
2023/04/17 03:57:56;;;;;;;16.60;13.10;;;;;;;6.86;100.00;102598.63;4983329;28;20185;-74
2023/04/17 04:00:22;;;;;;;17.67;14.10;;;;;;;8.05;100.00;102773.47;4994867;22;20955;-68
2023/04/17 04:02:47;;;;;;;15.57;12.60;;;;;;;8.28;100.00;102793.66;4984708;28;20547;-69
2023/04/17 04:05:13;;;;;;;16.63;13.70;;;;;;;8.38;100.00;102802.56;4983682;28;20257;-69
2023/04/17 04:07:39;;;;;;;14.73;12.83;;;;;;;8.31;100.00;102785.34;4982775;28;20616;-68
2023/04/17 04:10:05;;;;;;;16.07;13.10;;;;;;;8.38;100.00;102815.94;4984112;28;20433;-68
2023/04/17 04:12:30;;;;;;;16.10;13.37;;;;;;;8.51;100.00;102817.53;4985120;28;20186;-68
2023/04/17 04:14:56;;;;;;;17.23;13.30;;;;;;;8.03;100.00;102796.78;4985136;28;20465;-69
2023/04/17 04:17:21;;;;;;;16.03;12.90;;;;;;;8.06;100.00;102762.63;4984030;28;20193;-69
2023/04/17 04:19:46;;;;;;;16.20;13.20;;;;;;;8.02;100.00;102785.25;4984821;28;20182;-69
2023/04/17 04:22:12;;;;;;;16.37;13.50;;;;;;;8.36;100.00;102838.41;4984077;28;20284;-69
2023/04/17 04:24:39;;;;;;;15.80;13.13;;;;;;;8.49;100.00;102832.88;4965887;28;20178;-68
2023/04/17 04:27:05;;;;;;;15.40;12.40;;;;;;;8.43;100.00;102830.75;4983935;28;20724;-69
2023/04/17 04:29:31;;;;;;;16.43;12.70;;;;;;;8.31;100.00;102805.91;4967092;28;20483;-69
2023/04/17 04:31:57;;;;;;;17.23;13.43;;;;;;;8.31;100.00;102814.78;4982760;28;20445;-69
2023/04/17 04:34:24;;;;;;;14.80;12.07;;;;;;;7.91;100.00;102756.78;4982800;28;20454;-69
2023/04/17 04:36:53;;;;;;;15.87;14.07;;;;;;;8.00;100.00;102736.44;4984390;28;20808;-71
2023/04/17 04:39:19;;;;;;;15.70;12.60;;;;;;;8.20;100.00;102822.88;4984759;28;20976;-71
2023/04/17 04:41:54;;;;;;;14.67;12.40;;;;;;;8.55;100.00;102840.34;4983644;28;21128;-71
2023/04/17 04:44:20;;;;;;;17.50;12.60;;;;;;;8.51;100.00;102838.94;4984193;28;20432;-70
2023/04/17 04:46:45;;;;;;;17.37;13.53;;;;;;;8.10;100.00;102792.59;4983267;28;20436;-71
2023/04/17 04:49:11;;;;;;;16.23;12.07;;;;;;;8.52;100.00;102835.28;4983904;28;20182;-71
2023/04/17 04:51:37;;;;;;;13.80;12.23;;;;;;;8.43;100.00;102846.78;4984000;28;20202;-70
2023/04/17 04:54:03;;;;;;;15.40;12.20;;;;;;;8.42;100.00;102813.00;4982476;28;20425;-71
2023/04/17 04:56:31;;;;;;;16.27;12.70;;;;;;;8.43;100.00;102825.41;4983724;28;21279;-71
2023/04/17 04:58:56;;;;;;;14.20;12.53;;;;;;;8.58;100.00;102851.63;4983356;28;20308;-71
2023/04/17 05:01:23;;;;;;;14.30;11.53;;;;;;;8.19;100.00;102815.88;4983188;28;20544;-71
2023/04/17 05:03:48;;;;;;;12.90;11.50;;;;;;;8.33;100.00;102862.75;4983693;28;20201;-71
2023/04/17 05:06:13;;;;;;;19.73;12.73;;;;;;;8.48;100.00;102852.59;4983270;28;20428;-71
2023/04/17 05:08:40;;;;;;;18.30;13.07;;;;;;;8.17;100.00;102803.59;4964789;28;20210;-70
2023/04/17 05:11:06;;;;;;;15.43;12.90;;;;;;;8.37;100.00;102848.16;4965670;28;20205;-71
2023/04/17 05:13:31;;;;;;;15.57;13.17;;;;;;;8.33;100.00;102850.25;4982211;28;20922;-70
2023/04/17 05:15:57;;;;;;;14.27;12.20;;;;;;;8.51;100.00;102865.69;4982646;28;20210;-70
2023/04/17 05:18:22;;;;;;;14.87;11.90;;;;;;;8.36;100.00;102838.41;4982589;28;20189;-71
2023/04/17 05:20:48;;;;;;;15.80;12.97;;;;;;;8.67;100.00;102863.31;4984026;28;20202;-71
2023/04/17 05:23:14;;;;;;;18.20;12.50;;;;;;;8.46;100.00;102881.28;4982775;28;20663;-70
2023/04/17 05:25:39;;;;;;;15.30;13.07;;;;;;;8.68;100.00;102886.44;4981588;28;20517;-71
2023/04/17 05:28:05;;;;;;;14.47;11.27;;;;;;;8.41;100.00;102880.84;4982728;28;20185;-71
2023/04/17 05:30:31;;;;;;;15.40;12.30;;;;;;;8.48;100.00;102895.38;4982174;28;20656;-70
2023/04/17 05:32:57;;;;;;;13.50;11.80;;;;;;;8.37;100.00;102890.94;4983426;28;20488;-71
2023/04/17 05:35:23;;;;;;;14.93;12.80;;;;;;;8.51;100.00;102897.78;4982339;28;20213;-70
2023/04/17 05:37:49;;;;;;;18.37;13.90;;;;;;;8.43;100.00;102884.22;4983065;28;20434;-71
2023/04/17 05:40:14;;;;;;;14.30;12.13;;;;;;;8.41;100.00;102902.22;4982036;28;20569;-70
2023/04/17 05:42:40;;;;;;;17.70;11.93;;;;;;;8.03;100.00;102829.69;4981672;28;20276;-71
2023/04/17 05:45:06;;;;;;;16.40;12.07;;;;;;;8.31;100.00;102862.06;4981659;28;20194;-71
2023/04/17 05:47:31;;;;;;;14.60;12.83;;;;;;;8.53;100.00;102902.03;4982991;28;20182;-70
2023/04/17 05:49:57;;;;;;;20.00;12.63;;;;;;;8.70;100.00;102900.50;4983326;28;20233;-71
2023/04/17 05:52:23;;;;;;;13.77;12.20;;;;;;;8.25;100.00;102842.06;4982001;28;20651;-70
2023/04/17 05:54:49;;;;;;;12.77;11.30;;;;;;;8.59;100.00;102908.63;4981494;28;20516;-71
2023/04/17 05:57:15;;;;;;;15.50;11.93;;;;;;;8.67;100.00;102908.81;4981841;28;20524;-70
2023/04/17 05:59:42;;;;;;;14.40;12.70;;;;;;;8.03;100.00;102789.63;4981583;28;20504;-71
2023/04/17 06:02:07;;;;;;;16.13;12.47;;;;;;;8.79;100.00;102907.75;4981769;28;20311;-70
2023/04/17 06:04:33;;;;;;;15.10;11.70;;;;;;;8.76;100.00;102907.97;4981600;28;20939;-71
2023/04/17 06:06:58;;;;;;;15.27;11.00;;;;;;;8.57;100.00;102857.97;4981065;28;20197;-71
2023/04/17 06:09:23;;;;;;;18.33;11.67;;;;;;;8.83;100.00;102903.78;4981941;28;20187;-70
2023/04/17 06:11:49;;;;;;;14.53;12.97;;;;;;;8.45;100.00;102871.59;4981545;28;20586;-70
2023/04/17 06:14:14;;;;;;;15.40;12.10;;;;;;;8.92;100.00;102909.31;4980944;28;20565;-71
2023/04/17 06:16:40;;;;;;;15.10;12.60;;;;;;;8.78;100.00;102926.59;4963023;28;20301;-70
2023/04/17 06:19:05;;;;;;;12.83;11.50;;;;;;;8.31;100.00;102846.84;4981341;28;20610;-71
2023/04/17 06:21:31;;;;;;;15.23;12.57;;;;;;;8.89;100.00;102921.13;4981164;28;20704;-71
2023/04/17 06:23:57;;;;;;;14.27;12.87;;;;;;;8.70;100.00;102891.63;4981154;28;20185;-71
2023/04/17 06:26:22;;;;;;;13.10;11.70;;;;;;;8.95;100.00;102925.94;4963274;28;20183;-70
2023/04/17 06:28:47;;;;;;;14.93;12.37;;;;;;;8.81;100.00;102894.22;4982158;28;20182;-71
2023/04/17 06:31:13;;;;;;;13.23;11.83;;;;;;;8.78;100.00;102854.34;4981393;28;20691;-71
2023/04/17 06:33:39;;;;;;;13.57;12.07;;;;;;;9.11;100.00;102921.88;4981859;28;20264;-71
2023/04/17 06:36:04;;;;;;;15.20;13.30;;;;;;;8.94;100.00;102910.00;4981743;28;20296;-70
2023/04/17 06:38:30;;;;;;;14.50;11.73;;;;;;;9.23;100.00;102926.16;4981006;28;20240;-70
2023/04/17 06:40:55;;;;;;;14.40;12.10;;;;;;;9.26;100.00;102916.00;4981522;28;20209;-71
2023/04/17 06:43:20;;;;;;;15.93;12.77;;;;;;;9.12;100.00;102908.38;4963850;28;20876;-70
2023/04/17 06:45:47;;;;;;;13.07;11.67;;;;;;;8.81;100.00;102876.31;4981611;28;20193;-69
2023/04/17 06:48:12;;;;;;;15.63;12.60;;;;;;;9.24;100.00;102906.41;4982616;28;20213;-68
2023/04/17 06:50:38;;;;;;;13.30;12.00;;;;;;;9.38;100.00;102930.09;4981185;28;20469;-69
2023/04/17 06:53:03;;;;;;;16.43;12.50;;;;;;;9.44;100.00;102924.19;4963947;28;20208;-69
2023/04/17 06:55:29;;;;;;;16.40;11.87;;;;;;;8.96;100.00;102860.72;4980882;28;20591;-69
2023/04/17 06:57:54;;;;;;;15.17;12.87;;;;;;;9.40;100.00;102901.34;4981196;28;20652;-68
2023/04/17 07:00:20;;;;;;;13.83;12.03;;;;;;;9.32;100.00;102886.97;4980508;28;20214;-69
2023/04/17 07:02:46;;;;;;;13.00;11.53;;;;;;;9.69;100.00;102946.03;4982313;28;20191;-67
2023/04/17 07:05:12;;;;;;;14.40;12.67;;;;;;;9.15;100.00;102881.31;4979347;28;20422;-68
2023/04/17 07:07:38;;;;;;;15.90;12.47;;;;;;;9.46;100.00;102921.38;4963348;28;20184;-69
2023/04/17 07:10:05;;;;;;;13.73;12.33;;;;;;;9.31;100.00;102899.50;4962610;28;20520;-69
2023/04/17 07:12:30;;;;;;;13.83;12.33;;;;;;;9.26;100.00;102872.31;4964111;28;20429;-69
2023/04/17 07:14:56;;;;;;;13.50;11.47;;;;;;;9.75;100.00;102953.53;4979827;28;20970;-69
2023/04/17 07:17:21;;;;;;;14.90;12.83;;;;;;;9.70;100.00;102956.63;4981326;28;20189;-68
2023/04/17 07:19:47;;;;;;;17.03;12.93;;;;;;;9.38;100.00;102873.84;4964408;28;20221;-69
2023/04/17 07:22:13;;;;;;;14.60;13.10;;;;;;;9.83;100.00;102950.13;4963814;28;20217;-68
2023/04/17 07:24:38;;;;;;;15.13;12.53;;;;;;;9.39;100.00;102880.91;4980262;28;20200;-69
2023/04/17 07:27:05;;;;;;;14.50;11.73;;;;;;;9.58;100.00;102916.72;4980923;28;20240;-69
2023/04/17 07:29:31;;;;;;;13.53;12.13;;;;;;;9.71;100.00;102952.09;4979940;28;20174;-68
2023/04/17 07:31:56;;;;;;;14.40;12.67;;;;;;;9.79;100.00;102954.91;4967794;28;20498;-69
2023/04/17 07:34:24;;;;;;;15.20;12.53;;;;;;;9.87;100.00;102968.47;4985024;28;20179;-69
2023/04/17 07:36:51;;;;;;;13.67;11.40;;;;;;;9.59;100.00;102915.72;4986298;28;20649;-69
2023/04/17 07:39:17;;;;;;;13.47;11.50;;;;;;;9.48;100.00;102877.38;4982249;28;20804;-69
2023/04/17 07:41:43;;;;;;;12.83;11.47;;;;;;;10.12;100.00;102966.16;4984687;28;20444;-69
2023/04/17 07:44:08;;;;;;;14.97;12.23;;;;;;;10.06;100.00;102948.81;4984692;28;20425;-69
2023/04/17 07:46:33;;;;;;;15.43;11.93;;;;;;;9.84;100.00;102941.09;4983779;28;20189;-69
2023/04/17 07:48:59;;;;;;;13.53;12.13;;;;;;;9.50;100.00;102887.94;4967741;28;20190;-68
2023/04/17 07:51:25;;;;;;;14.60;13.10;;;;;;;9.67;100.00;102906.00;4984427;28;20209;-68
2023/04/17 07:53:50;;;;;;;14.10;12.40;;;;;;;9.93;100.00;102927.69;4968352;28;20177;-68
2023/04/17 07:56:17;;;;;;;17.07;13.33;;;;;;;9.77;100.00;102892.56;4981467;28;20739;-69
2023/04/17 07:58:43;;;;;;;14.00;12.27;;;;;;;9.79;100.00;102901.31;4984793;28;20430;-69
2023/04/17 08:01:09;;;;;;;14.60;12.60;;;;;;;10.36;100.00;102958.53;4966587;28;20217;-69
2023/04/17 08:03:35;;;;;;;13.40;12.03;;;;;;;9.99;100.00;102890.56;4983899;28;20431;-68
2023/04/17 08:06:00;;;;;;;12.40;10.90;;;;;;;10.09;100.00;102910.13;4981963;28;20277;-68
2023/04/17 08:08:25;;;;;;;15.07;11.37;;;;;;;10.57;100.00;102961.00;4983654;28;20217;-69
2023/04/17 08:10:51;;;;;;;13.97;10.63;;;;;;;10.38;100.00;102918.13;4983531;28;20205;-70
2023/04/17 08:13:16;;;;;;;13.90;11.13;;;;;;;10.25;100.00;102883.56;4967972;28;20657;-69
2023/04/17 08:15:42;;;;;;;12.67;11.30;;;;;;;10.81;100.00;102955.09;4982440;28;20209;-68
2023/04/17 08:18:09;;;;;;;12.40;11.10;;;;;;;10.88;100.00;102960.75;4966563;28;20200;-70
2023/04/17 08:20:35;;;;;;;12.17;10.87;;;;;;;10.89;100.00;102957.03;4966485;28;20310;-68
2023/04/17 08:23:00;;;;;;;13.30;11.80;;;;;;;10.93;100.00;102971.84;4983007;28;20507;-69
2023/04/17 08:25:26;;;;;;;13.17;11.97;;;;;;;10.99;100.00;102957.84;4966613;28;20187;-69
2023/04/17 08:27:51;;;;;;;13.40;11.70;;;;;;;10.63;100.00;102905.91;4984452;28;20212;-68
2023/04/17 08:30:17;;;;;;;12.80;11.33;;;;;;;11.04;100.00;102970.81;4982805;28;20241;-68
2023/04/17 08:32:47;;;;;;;12.63;11.33;;;;;;;10.76;100.00;102911.78;4967615;28;20218;-69
2023/04/17 08:35:14;;;;;;;13.37;10.47;;;;;;;11.20;100.00;102970.19;4967044;28;20707;-68
2023/04/17 08:37:41;;;;;;;14.50;11.70;;;;;;;11.16;100.00;102966.09;4983570;28;20420;-69
2023/04/17 08:40:08;;;;;;;13.43;12.00;;;;;;;10.97;100.00;102930.31;4966280;28;20441;-69
2023/04/17 08:42:39;;;;;;;12.27;10.83;;;;;;;11.32;100.00;102972.47;4967353;28;20417;-69
2023/04/17 08:45:12;;;;;;;12.23;10.83;;;;;;;10.83;100.00;102888.69;4983908;28;20464;-69
2023/04/17 08:47:39;;;;;;;13.10;11.80;;;;;;;11.32;100.00;102983.22;4982545;28;20484;-68
2023/04/17 08:50:13;;;;;;;13.40;12.00;;;;;;;10.96;100.00;102893.69;4965319;28;20801;-69
2023/04/17 08:52:41;;;;;;;15.80;12.27;;;;;;;10.92;100.00;102905.72;4983525;28;20433;-69
2023/04/17 08:55:07;;;;;;;14.90;13.10;;;;;;;11.45;100.00;102965.88;4967312;28;21107;-68
2023/04/17 08:57:33;;;;;;;14.67;11.90;;;;;;;11.50;100.00;102968.97;4982076;28;20839;-69
2023/04/17 09:00:01;;;;;;;13.40;12.03;;;;;;;11.51;100.00;102963.44;4983907;28;20517;-69
2023/04/17 09:02:26;;;;;;;13.03;11.70;;;;;;;11.63;100.00;102969.44;4967603;28;20711;-69
2023/04/17 09:04:52;;;;;;;14.53;11.10;;;;;;;11.53;100.00;102926.50;4982838;28;20543;-69
2023/04/17 09:07:29;;;;;;;14.80;12.17;;;;;;;10.85;100.00;102837.53;4983662;28;20214;-69
2023/04/17 09:09:55;;;;;;;16.57;12.30;;;;;;;11.79;100.00;102976.78;4984042;28;20622;-69
2023/04/17 09:12:25;;;;;;;13.40;12.00;;;;;;;11.59;100.00;102937.63;4982671;28;20435;-69
2023/04/17 09:14:52;;;;;;;13.13;11.67;;;;;;;11.95;100.00;102978.81;4966189;28;20843;-69
2023/04/17 09:17:18;;;;;;;14.47;12.20;;;;;;;11.99;100.00;102981.03;4965429;28;20424;-69
2023/04/17 09:20:07;;;;;;;13.80;12.23;;;;;;;12.07;100.00;102982.13;4983576;28;20524;-68
2023/04/17 09:22:34;;;;;;;18.23;13.40;;;;;;;11.96;100.00;102940.16;4981806;28;20422;-68
2023/04/17 09:25:00;;;;;;;15.63;11.87;;;;;;;11.72;100.00;102919.28;4965915;28;20425;-69
2023/04/17 09:27:27;;;;;;;15.70;13.60;;;;;;;11.59;100.00;102884.72;4982206;28;20980;-69
2023/04/17 09:30:04;;;;;;;14.67;13.17;;;;;;;12.17;100.00;102962.16;4982032;28;20206;-69
2023/04/17 09:32:32;;;;;;;14.90;11.57;;;;;;;12.27;100.00;102994.38;4982191;28;20460;-69
2023/04/17 09:35:00;;;;;;;13.33;11.90;;;;;;;12.42;100.00;102982.00;4981531;28;20539;-69
2023/04/17 09:37:47;;;;;;;14.73;12.97;;;;;;;12.49;100.00;102971.44;4983645;28;20428;-69
2023/04/17 09:40:13;;;;;;;12.07;10.80;;;;;;;12.06;100.00;102897.03;4982351;28;20463;-69
2023/04/17 09:42:59;;;;;;;12.87;11.57;;;;;;;12.35;100.00;102926.28;4982416;28;20434;-69
2023/04/17 09:45:28;;;;;;;13.93;11.53;;;;;;;12.31;100.00;102892.63;4980072;28;20197;-68
2023/04/17 09:47:54;;;;;;;15.73;12.70;;;;;;;12.77;100.00;102936.25;4964817;28;20439;-69
2023/04/17 09:50:21;;;;;;;12.87;11.30;;;;;;;12.54;100.00;102868.69;4965049;28;20456;-69
2023/04/17 09:52:51;;;;;;;12.53;11.20;;;;;;;12.54;100.00;102874.91;4983534;28;20425;-71
2023/04/17 09:55:20;;;;;;;13.30;11.63;;;;;;;13.10;100.00;102959.63;4982337;28;20639;-71
2023/04/17 09:57:52;;;;;;;11.93;10.60;;;;;;;12.65;100.00;102888.09;4981362;28;20433;-70
2023/04/17 10:02:50;;;;;;;13.97;12.50;;;;;;;12.96;100.00;102954.00;4973750;28;20481;-73
2023/04/17 10:05:17;;;;;;;13.10;11.80;;;;;;;13.02;100.00;102924.56;4983448;28;20414;-73
2023/04/17 10:07:42;;;;;;;11.33;10.00;;;;;;;12.27;100.00;102773.72;4983586;28;20792;-72
2023/04/17 10:10:09;;;;;;;14.93;11.20;;;;;;;13.23;100.00;102932.19;4983552;28;20428;-73
2023/04/17 10:12:37;;;;;;;12.17;10.93;;;;;;;13.16;100.00;102888.03;4982252;28;20202;-73
2023/04/17 10:15:04;;;;;;;12.40;10.90;;;;;;;12.93;100.00;102846.56;4981983;28;20453;-72
2023/04/17 10:17:32;;;;;;;13.17;10.53;;;;;;;13.19;100.00;102901.19;4982793;28;20418;-73
2023/04/17 10:20:16;;;;;;;12.10;9.80;;;;;;;13.34;100.00;102885.25;4963952;28;20504;-73
2023/04/17 10:23:22;;;;;;;11.73;9.90;;;;;;;13.59;100.00;102886.09;4981282;28;20432;-73
2023/04/17 10:25:47;;;;;;;12.90;11.43;;;;;;;13.47;100.00;102855.09;4981404;28;20911;-73
2023/04/17 10:28:12;;;;;;;13.33;11.93;;;;;;;12.57;100.00;102723.84;4982581;28;20432;-73
2023/04/17 10:30:55;;;;;;;10.90;9.80;;;;;;;13.44;100.00;102874.28;4980918;28;20212;-73
2023/04/17 10:33:23;;;;;;;14.73;11.87;;;;;;;13.41;100.00;102870.06;4980081;28;20185;-73
2023/04/17 10:35:49;;;;;;;12.30;10.50;;;;;;;12.95;100.00;102763.75;4964802;28;20830;-72
2023/04/17 10:38:16;;;;;;;12.33;10.77;;;;;;;13.44;100.00;102858.13;4982072;28;20426;-73
2023/04/17 10:40:42;;;;;;;12.77;10.30;;;;;;;13.32;100.00;102811.81;4981719;28;20466;-73
2023/04/17 10:43:22;;;;;;;14.60;9.87;;;;;;;13.73;100.00;102857.59;4981326;28;20420;-73
2023/04/17 10:46:01;;;;;;;13.53;11.57;;;;;;;13.73;100.00;102847.66;4982546;28;20848;-73
2023/04/17 10:48:36;;;;;;;12.10;9.70;;;;;;;13.74;100.00;102835.00;4981054;28;20413;-73
2023/04/17 10:51:27;;;;;;;10.93;9.70;;;;;;;12.38;100.00;102641.56;4981085;28;20487;-73
2023/04/17 10:53:53;;;;;;;11.50;10.23;;;;;;;13.73;100.00;102820.69;4981262;28;20428;-73
2023/04/17 10:56:38;;;;;;;12.00;10.10;;;;;;;12.74;100.00;102688.88;4979813;28;20468;-73
2023/04/17 10:59:08;;;;;;;12.73;11.20;;;;;;;13.86;100.00;102811.22;4980978;28;20711;-73
2023/04/17 11:01:46;;;;;;;12.00;10.70;;;;;;;13.38;100.00;102716.78;4982191;28;20449;-73
2023/04/17 11:04:19;;;;;;;14.60;12.00;;;;;;;13.92;100.00;102829.44;4980069;28;20432;-73
2023/04/17 11:06:45;;;;;;;13.63;11.17;;;;;;;14.00;100.00;102813.19;4964748;28;20422;-73
2023/04/17 11:09:11;;;;;;;15.17;11.07;;;;;;;13.83;100.00;102787.28;4964758;28;20425;-73